Time;durP1;ratioP1;P1;durP2;ratioP2;P2;SDS_P1;SDS_P2;PMS_P1;PMS_P2;Temp;Humidity;BMP_temperature;BMP_pressure;BME280_temperature;BME280_humidity;BME280_pressure;Samples;Min_cycle;Max_cycle;Signal;HPM_P1;HPM_P2
2023/10/31 00:01:13;;;;;;;;;;;;;;;14.77;59.38;99877.91;3160112;28;19930;-75
2023/10/31 00:02:44;;;;;;;;;;;;;;;14.75;59.46;99874.53;3166568;28;19920;-75
2023/10/31 00:04:17;;;;;;;;;;;;;;;14.71;59.38;99883.53;3164398;28;20309;-75
2023/10/31 00:05:47;;;;;;;;;;;;;;;14.70;59.59;99887.09;3164462;28;20320;-75
2023/10/31 00:07:19;;;;;;;;;;;;;;;14.67;59.54;99883.81;3165124;28;19919;-75
2023/10/31 00:08:49;;;;;;;;;;;;;;;14.66;59.45;99875.09;3167081;28;20257;-75
2023/10/31 00:10:21;;;;;;;;;;;;;;;14.66;59.30;99875.09;3165875;28;19930;-75
2023/10/31 00:11:51;;;;;;;;;;;;;;;14.66;59.34;99871.66;3148519;28;20236;-75
2023/10/31 00:13:23;;;;;;;;;;;;;;;14.65;59.41;99868.19;3160235;28;19927;-75
2023/10/31 00:14:53;;;;;;;;;;;;;;;14.64;59.51;99877.00;3169339;28;20285;-74
2023/10/31 00:16:25;;;;;;;;;;;;;;;14.63;59.48;99870.06;3169860;28;19926;-75
2023/10/31 00:17:55;;;;;;;;;;;;;;;14.61;59.47;99874.56;3169426;28;19980;-74
2023/10/31 00:19:28;;;;;;;;;;;;;;;14.60;59.40;99880.72;3169872;28;20426;-74
2023/10/31 00:20:59;;;;;;;;;;;;;;;14.59;59.66;99876.44;3148284;28;19927;-74
2023/10/31 00:22:30;;;;;;;;;;;;;;;14.54;59.63;99876.69;3150983;28;20254;-75
2023/10/31 00:24:03;;;;;;;;;;;;;;;14.53;59.64;99872.41;3160542;28;19931;-74
2023/10/31 00:25:34;;;;;;;;;;;;;;;14.53;59.76;99874.19;3163187;28;19926;-74
2023/10/31 00:27:05;;;;;;;;;;;;;;;14.51;59.82;99870.75;3164161;28;20255;-73
2023/10/31 00:28:36;;;;;;;;;;;;;;;14.51;59.81;99865.53;3171623;28;19923;-73
2023/10/31 00:30:07;;;;;;;;;;;;;;;14.48;59.86;99863.94;3172200;28;20508;-73
2023/10/31 00:31:40;;;;;;;;;;;;;;;14.48;59.55;99868.31;3164668;28;19980;-74
2023/10/31 00:33:11;;;;;;;;;;;;;;;14.47;59.64;99867.50;3164725;28;20018;-75
2023/10/31 00:34:44;;;;;;;;;;;;;;;14.46;59.55;99863.16;3172287;28;20393;-73
2023/10/31 00:36:14;;;;;;;;;;;;;;;14.44;59.69;99857.19;3166674;28;19927;-74
2023/10/31 00:37:46;;;;;;;;;;;;;;;14.42;60.00;99860.84;3171583;27;19924;-72
2023/10/31 00:39:18;;;;;;;;;;;;;;;14.40;59.80;99866.16;3172119;28;19930;-72
2023/10/31 00:40:48;;;;;;;;;;;;;;;14.39;60.06;99861.03;3170122;28;19923;-70
2023/10/31 00:42:20;;;;;;;;;;;;;;;14.38;59.90;99862.81;3149135;28;19943;-72
2023/10/31 00:43:50;;;;;;;;;;;;;;;14.38;59.84;99867.22;3169989;28;19929;-73
2023/10/31 00:45:22;;;;;;;;;;;;;;;14.37;59.76;99852.41;3171934;27;19920;-73
2023/10/31 00:46:52;;;;;;;;;;;;;;;14.36;59.86;99859.44;3171665;28;20305;-72
2023/10/31 00:48:24;;;;;;;;;;;;;;;14.36;59.96;99855.97;3170279;28;19934;-74
2023/10/31 00:49:56;;;;;;;;;;;;;;;14.34;59.98;99856.91;3168875;28;20339;-74
2023/10/31 00:51:27;;;;;;;;;;;;;;;14.35;59.75;99852.50;3164221;28;20416;-74
2023/10/31 00:52:59;;;;;;;;;;;;;;;14.33;59.94;99849.97;3159416;28;19973;-73
2023/10/31 00:54:29;;;;;;;;;;;;;;;14.32;59.91;99857.94;3166993;28;19924;-73
2023/10/31 00:56:01;;;;;;;;;;;;;;;14.29;60.10;99853.72;3165324;28;19928;-73
2023/10/31 00:57:32;;;;;;;;;;;;;;;14.29;59.89;99850.25;3163060;28;19919;-73
2023/10/31 00:59:03;;;;;;;;;;;;;;;14.27;59.94;99847.72;3171090;28;19931;-73
2023/10/31 01:00:37;;;;;;;;;;;;;;;14.27;59.76;99850.34;3171310;28;20388;-73
2023/10/31 01:02:07;;;;;;;;;;;;;;;14.27;59.90;99849.50;3171813;28;19992;-73
2023/10/31 01:03:39;;;;;;;;;;;;;;;14.25;59.90;99852.19;3171083;28;20035;-73
2023/10/31 01:05:11;;;;;;;;;;;;;;;14.26;59.89;99853.06;3165105;28;19920;-74
2023/10/31 01:06:43;;;;;;;;;;;;;;;13.95;59.74;99797.25;3171708;28;19920;-73
2023/10/31 01:08:14;;;;;;;;;;;;;;;14.24;59.80;99849.69;3169472;28;19924;-74
2023/10/31 01:09:46;;;;;;;;;;;;;;;14.22;59.84;99846.31;3171532;28;20207;-73
2023/10/31 01:11:17;;;;;;;;;;;;;;;14.21;59.94;99852.50;3163897;28;19981;-73
2023/10/31 01:12:48;;;;;;;;;;;;;;;14.19;59.98;99843.88;3158338;28;20389;-74
2023/10/31 01:14:19;;;;;;;;;;;;;;;14.16;60.14;99846.66;3170183;28;19924;-73
2023/10/31 01:15:50;;;;;;;;;;;;;;;14.13;60.20;99847.69;3171360;28;19927;-74
2023/10/31 01:17:21;;;;;;;;;;;;;;;14.13;60.34;99849.47;3171286;28;19924;-73
2023/10/31 01:18:53;;;;;;;;;;;;;;;14.11;60.46;99852.19;3171479;28;20598;-77
2023/10/31 01:20:25;;;;;;;;;;;;;;;14.10;60.47;99847.88;3167394;28;19923;-77
2023/10/31 01:21:57;;;;;;;;;;;;;;;14.08;60.59;99844.53;3159414;28;19924;-77
2023/10/31 01:23:27;;;;;;;;;;;;;;;14.08;60.57;99847.16;3162053;28;19938;-77
2023/10/31 01:24:59;;;;;;;;;;;;;;;14.06;60.49;99859.47;3163209;28;20320;-77
2023/10/31 01:26:29;;;;;;;;;;;;;;;14.05;60.30;99849.91;3170410;28;19934;-78
2023/10/31 01:28:01;;;;;;;;;;;;;;;14.05;60.67;99849.91;3171387;27;20381;-77
2023/10/31 01:29:32;;;;;;;;;;;;;;;14.05;60.77;99848.16;3171312;28;19924;-77
2023/10/31 01:31:03;;;;;;;;;;;;;;;14.04;60.75;99845.63;3169924;28;20006;-76
2023/10/31 01:32:34;;;;;;;;;;;;;;;14.01;60.80;99840.56;3171447;28;19928;-77
2023/10/31 01:34:05;;;;;;;;;;;;;;;13.98;60.80;99844.19;3166138;28;19920;-77
2023/10/31 01:35:37;;;;;;;;;;;;;;;13.96;60.86;99840.84;3166196;28;19924;-76
2023/10/31 01:37:09;;;;;;;;;;;;;;;13.94;60.81;99841.88;3169073;28;19920;-79
2023/10/31 01:38:39;;;;;;;;;;;;;;;13.94;60.77;99839.25;3171048;28;20365;-78
2023/10/31 01:40:13;;;;;;;;;;;;;;;13.92;60.86;99839.31;3171264;28;19924;-77
2023/10/31 01:41:43;;;;;;;;;;;;;;;13.93;60.80;99842.78;3156503;28;19920;-78
2023/10/31 01:43:29;;;;;;;;;;;;;;;13.92;60.73;99838.47;3162658;28;19926;-78
2023/10/31 01:45:00;;;;;;;;;;;;;;;13.89;60.75;99840.34;3169028;28;20702;-78
2023/10/31 01:46:31;;;;;;;;;;;;;;;13.88;60.76;99837.81;3171339;27;19924;-78
2023/10/31 01:48:02;;;;;;;;;;;;;;;13.86;60.91;99832.66;3170830;28;20033;-73
2023/10/31 01:49:34;;;;;;;;;;;;;;;13.85;60.80;99838.84;3162171;28;19919;-73
2023/10/31 01:51:07;;;;;;;;;;;;;;;13.85;61.00;99833.59;3171118;28;19926;-73
2023/10/31 01:52:39;;;;;;;;;;;;;;;13.86;61.03;99834.44;3155814;28;20397;-70
2023/10/31 01:54:10;;;;;;;;;;;;;;;13.84;60.84;99825.81;3162994;28;20025;-70
2023/10/31 01:55:41;;;;;;;;;;;;;;;13.83;61.03;99829.38;3171128;28;20319;-73
2023/10/31 01:57:13;;;;;;;;;;;;;;;13.82;60.85;99830.34;3166780;28;19930;-73
2023/10/31 01:58:46;;;;;;;;;;;;;;;13.82;60.89;99833.78;3170528;28;19977;-72
2023/10/31 02:00:17;;;;;;;;;;;;;;;13.80;60.76;99840.88;3171028;28;20386;-72
2023/10/31 02:01:49;;;;;;;;;;;;;;;13.79;60.76;99833.13;3159791;28;19927;-70
2023/10/31 02:03:20;;;;;;;;;;;;;;;13.77;60.85;99829.75;3166681;28;19926;-73
2023/10/31 02:04:51;;;;;;;;;;;;;;;13.75;60.84;99827.19;3160860;28;19923;-75
2023/10/31 02:06:24;;;;;;;;;;;;;;;13.73;60.92;99831.72;3170612;28;20633;-73
2023/10/31 02:07:55;;;;;;;;;;;;;;;13.72;60.80;99826.53;3170411;28;19923;-72
2023/10/31 02:09:28;;;;;;;;;;;;;;;13.69;60.89;99824.94;3170569;28;20339;-73
2023/10/31 02:10:59;;;;;;;;;;;;;;;13.67;60.94;99826.00;3170344;28;20007;-73
2023/10/31 02:12:34;;;;;;;;;;;;;;;13.60;61.26;99825.47;3160381;28;20395;-73
2023/10/31 02:14:06;;;;;;;;;;;;;;;13.52;61.43;99825.09;3167327;28;19920;-73
2023/10/31 02:15:36;;;;;;;;;;;;;;;13.48;61.41;99821.78;3170247;28;19919;-73
2023/10/31 02:17:08;;;;;;;;;;;;;;;13.45;61.62;99824.56;3170667;28;19919;-74
2023/10/31 02:18:41;;;;;;;;;;;;;;;13.45;61.77;99821.97;3166655;28;19943;-76
2023/10/31 02:20:11;;;;;;;;;;;;;;;13.45;61.52;99821.97;3170218;28;20020;-77
2023/10/31 02:21:44;;;;;;;;;;;;;;;13.46;61.64;99821.06;3163751;28;19925;-76
2023/10/31 02:23:15;;;;;;;;;;;;;;;13.45;61.90;99821.13;3158668;28;19942;-78
2023/10/31 02:24:46;;;;;;;;;;;;;;;13.43;61.85;99827.28;3160475;28;19973;-79
2023/10/31 02:26:17;;;;;;;;;;;;;;;13.42;62.16;99824.75;3170623;28;19919;-76
2023/10/31 02:27:49;;;;;;;;;;;;;;;13.38;62.12;99824.09;3161965;28;19920;-76
2023/10/31 02:29:19;;;;;;;;;;;;;;;13.33;62.51;99820.03;3170278;28;19920;-76
2023/10/31 02:30:51;;;;;;;;;;;;;;;13.30;62.39;99820.22;3170338;28;19923;-70
2023/10/31 02:32:21;;;;;;;;;;;;;;;13.29;62.69;99824.59;3166128;28;19920;-70
2023/10/31 02:33:53;;;;;;;;;;;;;;;13.27;62.56;99826.44;3168884;28;20024;-70
2023/10/31 02:35:23;;;;;;;;;;;;;;;13.27;62.61;99830.84;3170608;28;19938;-71
2023/10/31 02:36:56;;;;;;;;;;;;;;;13.27;62.34;99830.84;3170366;28;20053;-71
2023/10/31 02:38:28;;;;;;;;;;;;;;;13.27;62.50;99826.44;3169650;28;20001;-71
2023/10/31 02:39:59;;;;;;;;;;;;;;;13.26;62.47;99829.16;3170065;28;19942;-71
2023/10/31 02:41:31;;;;;;;;;;;;;;;13.24;62.50;99830.97;3159866;28;19928;-72
2023/10/31 02:43:02;;;;;;;;;;;;;;;13.23;62.79;99832.75;3158115;28;19920;-72
2023/10/31 02:44:34;;;;;;;;;;;;;;;13.23;62.79;99837.16;3168535;28;20007;-73
2023/10/31 02:46:04;;;;;;;;;;;;;;;13.21;62.81;99834.59;3169727;28;19977;-75
2023/10/31 02:47:36;;;;;;;;;;;;;;;13.20;62.68;99841.63;3165336;28;19936;-76
2023/10/31 02:49:06;;;;;;;;;;;;;;;13.18;63.06;99834.78;3165125;28;19924;-75
2023/10/31 02:50:39;;;;;;;;;;;;;;;13.15;63.16;99833.16;3169897;28;19924;-77
2023/10/31 02:52:11;;;;;;;;;;;;;;;13.14;62.93;99841.13;3158290;28;19920;-76
2023/10/31 02:53:42;;;;;;;;;;;;;;;13.10;63.42;99826.50;3157811;28;19930;-76
2023/10/31 02:55:13;;;;;;;;;;;;;;;13.06;63.70;99830.22;3170071;28;19919;-76
2023/10/31 02:56:44;;;;;;;;;;;;;;;13.01;63.90;99832.25;3166445;28;19970;-77
2023/10/31 02:58:17;;;;;;;;;;;;;;;12.98;63.66;99839.34;3148234;28;19991;-74
2023/10/31 02:59:48;;;;;;;;;;;;;;;12.99;63.85;99832.34;3166056;28;20018;-74
2023/10/31 03:01:19;;;;;;;;;;;;;;;12.97;63.70;99835.03;3162556;28;19927;-74
2023/10/31 03:02:51;;;;;;;;;;;;;;;12.98;63.78;99834.13;3167052;28;19920;-75
2023/10/31 03:04:21;;;;;;;;;;;;;;;12.95;64.00;99830.81;3164280;28;19920;-75
2023/10/31 03:05:53;;;;;;;;;;;;;;;12.93;64.06;99830.06;3165558;28;19953;-75
2023/10/31 03:07:25;;;;;;;;;;;;;;;12.91;64.04;99826.69;3170133;28;19942;-69
2023/10/31 03:08:57;;;;;;;;;;;;;;;12.90;64.25;99833.69;3169829;28;20018;-70
2023/10/31 03:10:27;;;;;;;;;;;;;;;12.89;64.18;99829.38;3170007;28;19926;-70
2023/10/31 03:11:59;;;;;;;;;;;;;;;12.86;64.00;99829.53;3164867;28;20321;-70
2023/10/31 03:13:29;;;;;;;;;;;;;;;12.83;64.21;99821.84;3154068;28;20416;-69
2023/10/31 03:15:01;;;;;;;;;;;;;;;12.80;64.47;99829.88;3169902;28;19924;-69
2023/10/31 03:16:32;;;;;;;;;;;;;;;12.77;64.57;99830.03;3166277;28;20334;-68
2023/10/31 03:18:04;;;;;;;;;;;;;;;12.75;64.54;99819.69;3170021;28;19920;-69
2023/10/31 03:19:34;;;;;;;;;;;;;;;12.73;64.87;99826.75;3170170;28;19920;-70
2023/10/31 03:21:06;;;;;;;;;;;;;;;12.71;64.63;99828.59;3170239;28;19927;-71
2023/10/31 03:22:39;;;;;;;;;;;;;;;12.70;64.95;99826.91;3151161;28;19920;-71
2023/10/31 03:24:10;;;;;;;;;;;;;;;12.69;65.09;99825.22;3162216;28;19999;-71
2023/10/31 03:25:41;;;;;;;;;;;;;;;12.65;65.23;99828.91;3167563;28;19924;-72
2023/10/31 03:27:12;;;;;;;;;;;;;;;12.61;65.49;99830.03;3169908;28;19920;-70
2023/10/31 03:28:43;;;;;;;;;;;;;;;12.57;65.58;99825.03;3163905;28;19923;-70
2023/10/31 03:30:14;;;;;;;;;;;;;;;12.56;65.71;99831.19;3169822;28;19927;-72
2023/10/31 03:31:45;;;;;;;;;;;;;;;12.53;65.73;99827.81;3157724;28;19920;-71
2023/10/31 03:33:16;;;;;;;;;;;;;;;12.50;65.76;99827.13;3163151;28;20016;-71
2023/10/31 03:34:48;;;;;;;;;;;;;;;12.47;65.79;99828.13;3169542;28;20686;-72
2023/10/31 03:36:18;;;;;;;;;;;;;;;12.46;65.75;99826.44;3169989;28;19928;-71
2023/10/31 03:37:51;;;;;;;;;;;;;;;12.42;65.95;99824.94;3169563;28;20041;-71
2023/10/31 03:39:22;;;;;;;;;;;;;;;12.41;65.98;99825.84;3169960;28;19934;-75
2023/10/31 03:40:53;;;;;;;;;;;;;;;12.39;66.07;99821.63;3169854;28;19923;-75
2023/10/31 03:42:24;;;;;;;;;;;;;;;12.37;65.90;99823.47;3146200;28;19924;-75
2023/10/31 03:43:55;;;;;;;;;;;;;;;12.38;65.75;99828.59;3148203;28;20373;-73
2023/10/31 03:45:26;;;;;;;;;;;;;;;12.37;66.06;99828.72;3165868;28;19927;-73
2023/10/31 03:46:57;;;;;;;;;;;;;;;12.32;66.60;99823.72;3169553;28;20847;-72
2023/10/31 03:48:28;;;;;;;;;;;;;;;12.25;67.13;99824.97;3160122;28;20017;-74
2023/10/31 03:50:00;;;;;;;;;;;;;;;12.20;67.17;99829.56;3162410;28;20076;-71
2023/10/31 03:51:30;;;;;;;;;;;;;;;12.15;67.40;99834.16;3164520;28;19981;-71
2023/10/31 03:53:03;;;;;;;;;;;;;;;12.12;67.48;99834.34;3155150;28;19923;-74
2023/10/31 03:54:34;;;;;;;;;;;;;;;12.12;67.28;99834.34;3157881;28;19920;-74
2023/10/31 03:56:06;;;;;;;;;;;;;;;12.12;67.37;99831.72;3169036;28;20399;-73
2023/10/31 03:57:36;;;;;;;;;;;;;;;12.11;67.24;99828.28;3162808;28;19955;-76
2023/10/31 03:59:08;;;;;;;;;;;;;;;12.11;67.11;99835.25;3151747;28;20392;-75
2023/10/31 04:00:39;;;;;;;;;;;;;;;12.10;67.10;99833.56;3162936;28;19927;-73
2023/10/31 04:02:10;;;;;;;;;;;;;;;12.07;67.36;99835.41;3172190;28;20395;-78
2023/10/31 04:03:41;;;;;;;;;;;;;;;12.03;67.74;99831.25;3168428;28;20008;-75
2023/10/31 04:05:12;;;;;;;;;;;;;;;12.02;67.26;99834.78;3159437;28;19927;-78
2023/10/31 04:06:43;;;;;;;;;;;;;;;12.02;67.35;99832.19;3170877;28;19995;-76
2023/10/31 04:08:16;;;;;;;;;;;;;;;12.02;67.35;99829.56;3169790;28;19924;-71
2023/10/31 04:09:47;;;;;;;;;;;;;;;12.01;67.44;99830.50;3160040;28;19920;-70
2023/10/31 04:11:18;;;;;;;;;;;;;;;12.01;67.22;99832.28;3172108;28;19919;-69
2023/10/31 04:12:50;;;;;;;;;;;;;;;12.03;67.10;99835.63;3160132;28;19949;-69
2023/10/31 04:14:21;;;;;;;;;;;;;;;12.03;67.31;99833.88;3171530;28;19924;-70
2023/10/31 04:15:52;;;;;;;;;;;;;;;12.00;67.40;99831.41;3171099;28;20535;-69
2023/10/31 04:17:23;;;;;;;;;;;;;;;11.99;67.84;99827.13;3172173;27;19923;-69
2023/10/31 04:18:54;;;;;;;;;;;;;;;11.97;67.68;99834.19;3171895;28;20285;-73
2023/10/31 04:20:26;;;;;;;;;;;;;;;11.97;67.75;99835.94;3171931;28;19926;-73
2023/10/31 04:21:56;;;;;;;;;;;;;;;11.96;67.69;99834.28;3161269;28;19923;-72
2023/10/31 04:23:29;;;;;;;;;;;;;;;11.96;67.65;99835.13;3161001;28;20364;-74
2023/10/31 04:24:59;;;;;;;;;;;;;;;11.97;67.49;99825.50;3164077;28;19919;-76
2023/10/31 04:26:31;;;;;;;;;;;;;;;11.96;67.73;99834.28;3171863;28;19923;-76
2023/10/31 04:28:02;;;;;;;;;;;;;;;11.96;67.69;99831.66;3171473;28;19988;-74
2023/10/31 04:29:33;;;;;;;;;;;;;;;11.96;67.52;99835.13;3155111;28;19920;-75
2023/10/31 04:31:04;;;;;;;;;;;;;;;11.97;67.39;99823.75;3170467;28;19923;-75
2023/10/31 04:32:36;;;;;;;;;;;;;;;11.97;67.38;99825.50;3161333;28;20556;-74
2023/10/31 04:34:06;;;;;;;;;;;;;;;11.98;67.00;99828.06;3164962;28;19998;-75
2023/10/31 04:35:38;;;;;;;;;;;;;;;11.99;67.39;99832.34;3158815;28;20663;-74
2023/10/31 04:37:09;;;;;;;;;;;;;;;11.99;67.20;99826.28;3159359;28;19924;-71
2023/10/31 04:38:42;;;;;;;;;;;;;;;11.99;66.97;99826.28;3159979;28;20315;-72
2023/10/31 04:40:13;;;;;;;;;;;;;;;11.98;66.93;99825.44;3171681;28;19920;-73
2023/10/31 04:41:44;;;;;;;;;;;;;;;11.98;66.90;99828.06;3157429;28;19924;-74
2023/10/31 04:43:16;;;;;;;;;;;;;;;11.97;67.07;99826.34;3169330;28;19926;-76
2023/10/31 04:44:46;;;;;;;;;;;;;;;11.97;66.92;99818.53;3160315;28;20313;-73
2023/10/31 04:46:18;;;;;;;;;;;;;;;11.97;67.07;99813.31;3170004;28;19926;-72
2023/10/31 04:47:49;;;;;;;;;;;;;;;11.96;66.88;99819.44;3171346;28;19920;-69
2023/10/31 04:49:20;;;;;;;;;;;;;;;11.96;66.85;99810.78;3168413;28;19923;-75
2023/10/31 04:50:52;;;;;;;;;;;;;;;11.97;66.92;99809.84;3167054;28;19952;-71
2023/10/31 04:52:25;;;;;;;;;;;;;;;11.96;67.02;99818.63;3160349;28;19931;-71
2023/10/31 04:53:58;;;;;;;;;;;;;;;11.95;66.87;99812.56;3158639;28;20303;-70
2023/10/31 04:55:29;;;;;;;;;;;;;;;11.94;66.76;99816.06;3164730;28;19968;-71
2023/10/31 04:57:00;;;;;;;;;;;;;;;11.95;66.57;99812.56;3171794;28;19983;-72
2023/10/31 04:58:31;;;;;;;;;;;;;;;11.97;66.67;99815.91;3164136;28;19924;-67
2023/10/31 05:00:05;;;;;;;;;;;;;;;11.95;67.05;99809.94;3153724;28;19920;-73
2023/10/31 05:01:36;;;;;;;;;;;;;;;11.94;67.20;99821.28;3171419;28;20649;-71
2023/10/31 05:03:08;;;;;;;;;;;;;;;11.93;66.89;99818.78;3171612;28;19920;-73
2023/10/31 05:04:40;;;;;;;;;;;;;;;11.33;66.90;99720.00;3164829;28;19977;-71
2023/10/31 05:06:11;;;;;;;;;;;;;;;11.93;66.85;99811.78;3171442;28;20019;-72
2023/10/31 05:07:42;;;;;;;;;;;;;;;11.94;67.07;99807.41;3171545;28;19926;-70
2023/10/31 05:09:14;;;;;;;;;;;;;;;11.94;66.95;99805.63;3159884;28;19920;-69
2023/10/31 05:10:47;;;;;;;;;;;;;;;11.95;66.96;99806.47;3168056;28;19938;-68
2023/10/31 05:12:17;;;;;;;;;;;;;;;11.96;66.70;99800.34;3162109;28;20409;-69
2023/10/31 05:13:49;;;;;;;;;;;;;;;11.94;66.96;99805.63;3155511;28;19920;-74
2023/10/31 05:15:21;;;;;;;;;;;;;;;11.91;66.81;99816.22;3153578;28;20312;-70
2023/10/31 05:16:51;;;;;;;;;;;;;;;11.89;66.85;99807.66;3158777;28;20293;-69
2023/10/31 05:18:24;;;;;;;;;;;;;;;11.87;67.16;99800.81;3158512;28;20057;-65
2023/10/31 05:19:54;;;;;;;;;;;;;;;11.85;67.18;99800.88;3163969;28;19927;-66
2023/10/31 05:21:26;;;;;;;;;;;;;;;11.83;66.89;99793.13;3162516;27;19924;-73
2023/10/31 05:22:58;;;;;;;;;;;;;;;11.84;67.42;99791.34;3154450;28;19920;-71
2023/10/31 05:24:32;;;;;;;;;;;;;;;11.86;67.51;99802.59;3161502;28;19928;-64
2023/10/31 05:26:06;;;;;;;;;;;;;;;11.87;67.37;99806.88;3165720;28;19977;-76
2023/10/31 05:27:36;;;;;;;;;;;;;;;11.89;67.51;99802.44;3152227;28;19973;-74
2023/10/31 05:29:08;;;;;;;;;;;;;;;11.91;67.48;99803.19;3155093;28;19924;-71
2023/10/31 05:30:38;;;;;;;;;;;;;;;11.95;67.47;99811.69;3157149;28;19924;-71
2023/10/31 05:32:10;;;;;;;;;;;;;;;11.97;67.59;99810.69;3153713;28;19926;-68
2023/10/31 05:33:40;;;;;;;;;;;;;;;12.02;67.53;99820.91;3153305;28;19931;-62
2023/10/31 05:35:12;;;;;;;;;;;;;;;12.07;67.66;99827.59;3156436;28;19923;-71
2023/10/31 05:36:42;;;;;;;;;;;;;;;12.12;67.45;99823.88;3165896;28;19920;-64
2023/10/31 05:38:14;;;;;;;;;;;;;;;12.15;67.40;99821.13;3148873;28;19926;-65
2023/10/31 05:39:46;;;;;;;;;;;;;;;12.22;67.53;99831.19;3165953;28;20400;-65
2023/10/31 05:41:17;;;;;;;;;;;;;;;12.30;67.32;99838.59;3155032;28;19920;-64
2023/10/31 05:42:49;;;;;;;;;;;;;;;12.36;67.06;99840.91;3156963;28;19924;-67
2023/10/31 05:44:19;;;;;;;;;;;;;;;12.44;67.23;99837.91;3151969;28;19921;-64
2023/10/31 05:45:51;;;;;;;;;;;;;;;12.55;66.92;99838.19;3163195;28;19934;-63
2023/10/31 05:47:21;;;;;;;;;;;;;;;12.64;66.80;99842.91;3159985;28;19920;-65
2023/10/31 05:48:53;;;;;;;;;;;;;;;12.73;66.33;99852.03;3164832;28;19930;-64
2023/10/31 05:50:24;;;;;;;;;;;;;;;12.77;66.38;99850.94;3159168;28;19931;-65
2023/10/31 05:51:55;;;;;;;;;;;;;;;12.82;66.50;99845.47;3170912;27;19995;-69
2023/10/31 05:53:26;;;;;;;;;;;;;;;12.83;66.34;99853.22;3160104;28;19924;-70
2023/10/31 05:54:59;;;;;;;;;;;;;;;12.84;66.54;99854.94;3166108;28;19923;-65
2023/10/31 05:56:29;;;;;;;;;;;;;;;12.88;66.51;99851.22;3169776;28;19928;-66
2023/10/31 05:58:01;;;;;;;;;;;;;;;12.93;66.52;99845.75;3165412;28;20040;-65
2023/10/31 05:59:32;;;;;;;;;;;;;;;13.02;66.50;99860.94;3163377;28;19920;-64
2023/10/31 06:01:04;;;;;;;;;;;;;;;13.10;66.25;99860.50;3160854;28;20014;-68
2023/10/31 06:02:34;;;;;;;;;;;;;;;13.18;66.23;99859.16;3157871;28;20015;-67
2023/10/31 06:04:06;;;;;;;;;;;;;;;13.26;66.08;99855.31;3156331;28;20372;-67
2023/10/31 06:05:36;;;;;;;;;;;;;;;13.35;65.93;99863.50;3165627;28;20367;-67
2023/10/31 06:07:08;;;;;;;;;;;;;;;13.45;65.86;99866.44;3157152;28;19972;-63
2023/10/31 06:08:39;;;;;;;;;;;;;;;13.54;65.50;99867.69;3168521;28;20258;-64
2023/10/31 06:10:12;;;;;;;;;;;;;;;13.65;65.55;99860.91;3170620;28;19920;-70
2023/10/31 06:11:42;;;;;;;;;;;;;;;13.77;65.18;99871.63;3162772;28;20389;-65
2023/10/31 06:13:14;;;;;;;;;;;;;;;13.88;65.13;99864.84;3157313;28;19938;-68
2023/10/31 06:14:44;;;;;;;;;;;;;;;13.99;64.99;99860.75;3154925;28;20325;-66
2023/10/31 06:16:16;;;;;;;;;;;;;;;14.15;64.36;99864.16;3162371;28;19925;-67
2023/10/31 06:17:47;;;;;;;;;;;;;;;14.30;64.30;99860.63;3166070;28;19920;-65
2023/10/31 06:19:18;;;;;;;;;;;;;;;14.52;63.87;99864.59;3161795;28;20392;-67
2023/10/31 06:20:49;;;;;;;;;;;;;;;14.80;63.27;99853.31;3171198;28;19927;-65
2023/10/31 06:22:21;;;;;;;;;;;;;;;15.07;62.57;99847.28;3170942;28;19999;-58
2023/10/31 06:23:51;;;;;;;;;;;;;;;15.33;61.76;99853.50;3169932;28;19941;-63
2023/10/31 06:25:24;;;;;;;;;;;;;;;15.57;60.88;99849.28;3170663;28;19923;-67
2023/10/31 06:26:55;;;;;;;;;;;;;;;15.80;60.26;99850.44;3168614;28;19943;-65
2023/10/31 06:28:26;;;;;;;;;;;;;;;16.06;59.63;99853.09;3170215;28;20401;-69
2023/10/31 06:29:57;;;;;;;;;;;;;;;16.31;58.81;99849.66;3159608;28;19990;-69
2023/10/31 06:31:28;;;;;;;;;;;;;;;16.57;58.10;99861.88;3150582;28;19924;-66
2023/10/31 06:32:59;;;;;;;;;;;;;;;16.77;57.63;99862.28;3168884;28;19920;-69
2023/10/31 06:34:31;;;;;;;;;;;;;;;16.98;57.06;99854.69;3162063;28;19920;-62
2023/10/31 06:36:01;;;;;;;;;;;;;;;17.24;56.38;99852.81;3151508;28;19927;-67
2023/10/31 06:37:33;;;;;;;;;;;;;;;17.40;55.59;99856.03;3161908;28;19920;-66
2023/10/31 06:39:05;;;;;;;;;;;;;;;17.48;55.05;99858.09;3159874;28;20384;-66
2023/10/31 06:40:37;;;;;;;;;;;;;;;17.49;54.55;99863.25;3153824;28;19928;-68
2023/10/31 06:42:08;;;;;;;;;;;;;;;17.52;54.49;99867.47;3161061;28;20409;-67
2023/10/31 06:43:39;;;;;;;;;;;;;;;17.48;54.48;99866.84;3159990;28;19920;-66
2023/10/31 06:45:10;;;;;;;;;;;;;;;17.33;54.98;99864.47;3156491;28;19926;-67
2023/10/31 06:46:41;;;;;;;;;;;;;;;17.18;55.35;99856.72;3157327;28;19980;-67
2023/10/31 06:48:12;;;;;;;;;;;;;;;17.21;56.00;99867.03;3169728;28;19920;-66
2023/10/31 06:49:43;;;;;;;;;;;;;;;17.34;55.91;99860.91;3169075;28;19956;-67
2023/10/31 06:51:15;;;;;;;;;;;;;;;17.65;55.50;99868.22;3167280;28;20308;-70
2023/10/31 06:52:45;;;;;;;;;;;;;;;18.16;54.22;99865.34;3165715;28;19927;-66
2023/10/31 06:54:17;;;;;;;;;;;;;;;18.71;52.76;99865.53;3165581;28;20007;-65
2023/10/31 06:55:49;;;;;;;;;;;;;;;19.26;51.08;99865.66;3157455;28;19931;-67
2023/10/31 06:57:20;;;;;;;;;;;;;;;19.91;50.09;99862.09;3155019;28;19942;-67
2023/10/31 06:58:51;;;;;;;;;;;;;;;20.72;48.67;99850.91;3166323;28;20316;-68
2023/10/31 07:00:22;;;;;;;;;;;;;;;21.47;47.33;99849.56;3156354;28;19929;-69
2023/10/31 07:01:53;;;;;;;;;;;;;;;22.30;46.35;99853.47;3158597;28;19973;-71
2023/10/31 07:03:24;;;;;;;;;;;;;;;23.20;44.85;99852.00;3170031;28;19942;-69
2023/10/31 07:04:56;;;;;;;;;;;;;;;24.02;43.66;99842.19;3160429;28;19927;-72
2023/10/31 07:06:26;;;;;;;;;;;;;;;24.67;42.46;99839.94;3161273;28;20324;-69
2023/10/31 07:07:58;;;;;;;;;;;;;;;25.18;41.33;99834.66;3169621;28;19937;-67
2023/10/31 07:09:29;;;;;;;;;;;;;;;25.69;41.00;99835.41;3167315;28;19958;-70
2023/10/31 07:11:02;;;;;;;;;;;;;;;26.05;39.77;99833.25;3160495;28;19924;-66
2023/10/31 07:12:32;;;;;;;;;;;;;;;26.36;39.70;99834.41;3162314;28;19923;-70
2023/10/31 07:14:04;;;;;;;;;;;;;;;26.64;39.49;99824.97;3170119;28;19920;-72
2023/10/31 07:15:38;;;;;;;;;;;;;;;26.80;39.24;99824.09;3163644;28;20270;-72
2023/10/31 07:17:10;;;;;;;;;;;;;;;26.88;39.54;99826.72;3168281;28;19920;-77
2023/10/31 07:18:40;;;;;;;;;;;;;;;26.98;39.59;99829.19;3158419;28;19931;-73
2023/10/31 07:20:12;;;;;;;;;;;;;;;26.94;39.27;99828.69;3167076;28;20425;-69
2023/10/31 07:21:43;;;;;;;;;;;;;;;26.96;39.35;99831.19;3159569;28;19929;-73
2023/10/31 07:23:14;;;;;;;;;;;;;;;26.81;38.28;99832.94;3166332;28;19934;-70
2023/10/31 07:24:45;;;;;;;;;;;;;;;26.65;38.28;99839.16;3163074;28;19989;-66
2023/10/31 07:26:18;;;;;;;;;;;;;;;26.82;38.28;99822.06;3166919;28;20370;-65
2023/10/31 07:27:48;;;;;;;;;;;;;;;27.29;38.46;99828.38;3157029;28;19942;-68
2023/10/31 07:29:20;;;;;;;;;;;;;;;27.65;37.40;99824.09;3162362;28;19995;-65
2023/10/31 07:30:51;;;;;;;;;;;;;;;28.06;36.86;99826.44;3154695;28;19946;-67
2023/10/31 07:32:22;;;;;;;;;;;;;;;28.50;36.10;99820.34;3162727;28;19943;-66
2023/10/31 07:33:53;;;;;;;;;;;;;;;28.95;35.62;99815.75;3156586;28;20045;-70
2023/10/31 07:35:25;;;;;;;;;;;;;;;29.47;34.79;99809.34;3148930;28;19920;-66
2023/10/31 07:36:56;;;;;;;;;;;;;;;29.87;34.41;99823.13;3148924;28;20725;-67
2023/10/31 07:38:28;;;;;;;;;;;;;;;30.15;32.32;99823.16;3149831;28;19923;-67
2023/10/31 07:39:58;;;;;;;;;;;;;;;30.37;32.72;99820.41;3148311;28;19923;-70
2023/10/31 07:41:31;;;;;;;;;;;;;;;30.68;32.83;99816.47;3148800;28;19930;-69
2023/10/31 07:43:02;;;;;;;;;;;;;;;30.72;32.68;99813.16;3150753;28;19925;-67
2023/10/31 07:44:33;;;;;;;;;;;;;;;30.93;33.02;99820.31;3149342;28;19931;-65
2023/10/31 07:46:04;;;;;;;;;;;;;;;31.13;32.20;99811.47;3153847;28;20411;-68
2023/10/31 07:47:36;;;;;;;;;;;;;;;31.27;32.26;99815.88;3152891;28;19919;-67
2023/10/31 07:49:06;;;;;;;;;;;;;;;31.44;31.72;99809.09;3154163;28;20026;-66
2023/10/31 07:50:38;;;;;;;;;;;;;;;31.67;32.19;99805.16;3146541;28;20722;-67
2023/10/31 07:52:08;;;;;;;;;;;;;;;31.95;31.93;99792.38;3150292;28;19925;-68
2023/10/31 07:53:40;;;;;;;;;;;;;;;31.97;30.85;99797.53;3159159;28;19997;-67
2023/10/31 07:55:13;;;;;;;;;;;;;;;31.90;30.97;99791.31;3150286;28;19924;-69
2023/10/31 07:56:45;;;;;;;;;;;;;;;31.90;31.09;99786.75;3150054;28;19921;-73